Time;durP1;ratioP1;P1;durP2;ratioP2;P2;SDS_P1;SDS_P2;PMS_P1;PMS_P2;Temp;Humidity;BMP_temperature;BMP_pressure;BME280_temperature;BME280_humidity;BME280_pressure;Samples;Min_cycle;Max_cycle;Signal;HPM_P1;HPM_P2
2022/10/24 00:02:05;;;;;;;0.35;0.35;;;;;;;11.70;100.00;98717.22;5033385;28;20107;-59
2022/10/24 00:04:35;;;;;;;4.68;0.55;;;;;;;11.70;100.00;98704.75;5040545;28;20041;-58
2022/10/24 00:07:01;;;;;;;0.93;0.38;;;;;;;11.69;100.00;98707.63;5033442;28;20226;-59
2022/10/24 00:09:26;;;;;;;5.15;0.80;;;;;;;11.71;100.00;98705.53;5031147;28;20071;-58
2022/10/24 00:11:51;;;;;;;4.15;1.27;;;;;;;11.74;100.00;98699.75;5033686;28;20033;-55
2022/10/24 00:14:17;;;;;;;4.38;1.27;;;;;;;11.74;100.00;98691.78;5039160;28;21103;-58
2022/10/24 00:16:42;;;;;;;5.57;0.20;;;;;;;11.75;100.00;98677.47;5036070;28;20101;-58
2022/10/24 00:19:07;;;;;;;2.50;0.05;;;;;;;11.78;100.00;98679.66;5034877;28;20022;-59
2022/10/24 00:21:33;;;;;;;3.00;0.20;;;;;;;11.78;100.00;98680.44;5037873;28;20037;-59
2022/10/24 00:23:58;;;;;;;5.80;0.40;;;;;;;11.79;100.00;98684.69;5043566;28;20101;-58
2022/10/24 00:26:24;;;;;;;2.38;0.30;;;;;;;11.81;100.00;98681.81;5043088;28;20037;-59
2022/10/24 00:28:49;;;;;;;2.67;0.50;;;;;;;11.77;100.00;98678.00;5040444;28;20490;-60
2022/10/24 00:31:17;;;;;;;3.65;0.52;;;;;;;11.81;100.00;98684.47;5038435;28;20545;-59
2022/10/24 00:33:43;;;;;;;11.55;2.13;;;;;;;11.83;100.00;98678.91;5031517;28;20400;-55
2022/10/24 00:36:14;;;;;;;0.47;0.00;;;;;;;11.82;100.00;98671.97;5042995;28;20071;-56
2022/10/24 00:38:39;;;;;;;0.33;0.00;;;;;;;11.80;100.00;98669.59;5037384;28;20375;-60
2022/10/24 00:41:05;;;;;;;4.97;1.17;;;;;;;11.77;100.00;98670.88;5039274;28;20075;-59
2022/10/24 00:43:30;;;;;;;5.30;1.27;;;;;;;11.72;100.00;98668.16;5042332;28;20116;-59
2022/10/24 00:46:00;;;;;;;5.15;0.73;;;;;;;11.73;100.00;98671.59;5041899;28;20036;-59
2022/10/24 00:48:39;;;;;;;3.72;0.20;;;;;;;11.74;100.00;98683.81;5038804;28;20091;-58
2022/10/24 00:51:14;;;;;;;3.50;0.20;;;;;;;11.74;100.00;98691.78;5035915;28;20049;-58
2022/10/24 00:53:45;;;;;;;2.40;0.28;;;;;;;11.75;100.00;98696.88;5040681;28;20074;-58
2022/10/24 00:56:13;;;;;;;4.45;0.90;;;;;;;11.77;100.00;98699.25;5037086;28;20025;-59
2022/10/24 00:58:41;;;;;;;0.13;0.10;;;;;;;11.76;100.00;98693.16;5041165;28;20089;-60
2022/10/24 01:01:07;;;;;;;1.08;0.00;;;;;;;11.74;100.00;98689.13;5033889;28;20025;-59
2022/10/24 01:03:33;;;;;;;0.47;0.10;;;;;;;11.70;100.00;98701.28;5038489;28;20026;-62
2022/10/24 01:06:14;;;;;;;0.25;0.00;;;;;;;11.69;100.00;98704.97;5037713;28;20041;-59
2022/10/24 01:08:45;;;;;;;0.13;0.00;;;;;;;11.68;100.00;98720.09;5038482;28;20406;-56
2022/10/24 01:11:31;;;;;;;;;;;;;;;11.72;100.00;98726.56;5034683;28;20052;-58
2022/10/24 01:14:04;;;;;;;0.30;0.00;;;;;;;11.68;100.00;98745.84;5028213;28;19916;-58
2022/10/24 01:16:48;;;;;;;0.08;0.00;;;;;;;11.68;100.00;98743.19;5038129;28;20512;-58
2022/10/24 01:19:13;;;;;;;0.95;0.47;;;;;;;11.72;100.00;98760.25;5041025;28;20453;-58
2022/10/24 01:21:47;;;;;;;0.10;0.10;;;;;;;11.74;100.00;98766.13;5040082;28;20512;-58
2022/10/24 01:24:37;;;;;;;0.65;0.10;;;;;;;11.74;100.00;98777.53;5043057;28;20112;-58
2022/10/24 01:27:15;;;;;;;0.30;0.00;;;;;;;11.73;100.00;98786.56;5040317;28;20033;-60
2022/10/24 01:29:58;;;;;;;0.45;0.10;;;;;;;11.74;100.00;98797.97;5038355;28;20037;-59
2022/10/24 01:32:47;;;;;;;0.38;0.00;;;;;;;11.75;100.00;98804.91;5040704;28;20030;-58
2022/10/24 01:35:13;;;;;;;0.15;0.00;;;;;;;11.75;100.00;98807.56;5049914;28;20029;-59
2022/10/24 01:37:47;;;;;;;0.00;0.00;;;;;;;11.78;100.00;98815.84;5035269;28;20039;-58
2022/10/24 01:40:22;;;;;;;0.63;0.00;;;;;;;11.78;100.00;98833.66;5036963;28;20039;-59
2022/10/24 01:42:51;;;;;;;0.10;0.00;;;;;;;11.75;100.00;98831.47;5044841;28;20031;-58
2022/10/24 01:45:24;;;;;;;0.65;0.10;;;;;;;11.76;100.00;98844.50;5037665;28;20033;-58
2022/10/24 01:47:53;;;;;;;1.45;0.00;;;;;;;11.76;100.00;98846.34;5045844;28;20029;-57
2022/10/24 01:50:22;;;;;;;0.10;0.00;;;;;;;11.79;100.00;98857.28;5038021;28;20033;-57
2022/10/24 01:52:49;;;;;;;0.30;0.10;;;;;;;11.80;100.00;98868.75;5037562;28;20108;-58
2022/10/24 01:55:14;;;;;;;0.85;0.60;;;;;;;11.80;100.00;98879.34;5039220;28;20029;-58
2022/10/24 01:57:41;;;;;;;3.47;0.00;;;;;;;11.80;100.00;98892.63;5046363;28;20040;-58
2022/10/24 02:00:09;;;;;;;1.15;0.20;;;;;;;11.78;100.00;98894.72;5040159;28;20108;-56
2022/10/24 02:02:44;;;;;;;1.75;0.45;;;;;;;11.78;100.00;98900.81;5037918;28;20075;-58
2022/10/24 02:05:18;;;;;;;0.40;0.00;;;;;;;11.78;100.00;98910.66;5041963;28;20041;-58
2022/10/24 02:07:47;;;;;;;0.65;0.00;;;;;;;11.76;100.00;98924.16;5033933;28;20037;-59
2022/10/24 02:10:20;;;;;;;0.00;0.00;;;;;;;11.73;100.00;98937.91;5040428;28;20471;-59
2022/10/24 02:12:51;;;;;;;0.13;0.00;;;;;;;11.73;100.00;98937.09;5039144;28;20038;-56
2022/10/24 02:15:23;;;;;;;0.10;0.00;;;;;;;11.72;100.00;98949.56;5043427;28;20022;-55
2022/10/24 02:17:48;;;;;;;1.45;0.00;;;;;;;11.69;100.00;98952.69;5031793;28;20031;-57
2022/10/24 02:20:14;;;;;;;0.98;0.00;;;;;;;11.67;100.00;98964.56;5040846;28;20471;-58
2022/10/24 02:22:50;;;;;;;0.55;0.00;;;;;;;11.66;100.00;98968.28;5034823;28;20055;-54
2022/10/24 02:25:23;;;;;;;0.32;0.00;;;;;;;11.64;100.00;98979.16;5041615;28;20040;-58
2022/10/24 02:27:58;;;;;;;0.43;0.00;;;;;;;11.63;100.00;98987.34;5042695;28;20048;-58
2022/10/24 02:30:25;;;;;;;0.00;0.00;;;;;;;11.61;100.00;99006.16;5041553;28;20224;-55
2022/10/24 02:33:00;;;;;;;0.82;0.00;;;;;;;11.60;100.00;99015.16;5042841;28;20526;-58
2022/10/24 02:35:31;;;;;;;0.20;0.00;;;;;;;11.58;100.00;99007.41;5038769;28;20036;-58
2022/10/24 02:38:03;;;;;;;0.20;0.00;;;;;;;11.57;100.00;99015.63;5036985;28;20031;-58
2022/10/24 02:40:29;;;;;;;0.00;0.00;;;;;;;11.60;100.00;99030.28;5049165;28;20041;-57
2022/10/24 02:42:57;;;;;;;1.70;0.15;;;;;;;11.61;100.00;99039.84;5032783;28;20037;-59
2022/10/24 02:45:24;;;;;;;2.35;0.00;;;;;;;11.59;100.00;99042.75;5037782;28;20035;-59
2022/10/24 02:47:55;;;;;;;0.35;0.00;;;;;;;11.60;100.00;99051.53;5047161;28;20113;-57
2022/10/24 02:50:21;;;;;;;0.45;0.00;;;;;;;11.58;100.00;99051.75;5034390;28;20079;-60
2022/10/24 02:52:47;;;;;;;3.03;0.65;;;;;;;11.57;100.00;99050.94;5035000;28;20493;-60
2022/10/24 02:55:13;;;;;;;0.85;0.10;;;;;;;11.57;100.00;99055.44;5036404;28;20413;-59
2022/10/24 02:57:38;;;;;;;0.10;0.00;;;;;;;11.54;100.00;99062.03;5041710;28;20378;-59
2022/10/24 03:00:05;;;;;;;3.53;0.35;;;;;;;11.53;100.00;99063.06;5037768;28;20017;-59
2022/10/24 03:02:30;;;;;;;0.57;0.22;;;;;;;11.52;100.00;99064.09;5049085;28;20486;-58
2022/10/24 03:04:56;;;;;;;0.73;0.28;;;;;;;11.52;100.00;99072.06;5033843;28;20071;-58
2022/10/24 03:07:21;;;;;;;1.10;0.30;;;;;;;11.49;100.00;99067.22;5030532;28;20390;-59
2022/10/24 03:09:46;;;;;;;1.38;0.30;;;;;;;11.49;100.00;99071.72;5039605;28;20028;-57
2022/10/24 03:12:16;;;;;;;7.57;0.25;;;;;;;11.47;100.00;99074.59;5034756;28;20116;-56
2022/10/24 03:14:41;;;;;;;3.20;0.13;;;;;;;11.44;100.00;99075.06;5041875;28;20111;-59
2022/10/24 03:17:07;;;;;;;3.05;0.17;;;;;;;11.43;100.00;99078.75;5034487;28;20033;-59
2022/10/24 03:19:32;;;;;;;0.43;0.30;;;;;;;11.42;100.00;99081.66;5032737;28;20029;-57
2022/10/24 03:21:57;;;;;;;1.23;0.25;;;;;;;11.41;100.00;99080.84;5042646;28;20037;-54
2022/10/24 03:24:23;;;;;;;2.20;0.90;;;;;;;11.39;100.00;99098.84;5036002;28;20052;-59
2022/10/24 03:26:51;;;;;;;1.15;0.10;;;;;;;11.37;100.00;99103.56;5037269;28;20115;-58
2022/10/24 03:29:19;;;;;;;2.05;0.32;;;;;;;11.33;100.00;99099.75;5039489;28;20510;-58
2022/10/24 03:31:45;;;;;;;0.40;0.38;;;;;;;11.33;100.00;99105.88;5037238;28;20032;-59
2022/10/24 03:34:11;;;;;;;4.45;0.13;;;;;;;11.35;100.00;99114.41;5041793;28;20122;-59
2022/10/24 03:36:36;;;;;;;0.57;0.17;;;;;;;11.34;100.00;99109.34;5039185;28;20032;-57
2022/10/24 03:39:02;;;;;;;2.20;0.47;;;;;;;11.33;100.00;99116.50;5039065;28;20360;-59
2022/10/24 03:41:28;;;;;;;2.97;0.10;;;;;;;11.34;100.00;99117.28;5038295;28;20076;-59
2022/10/24 03:43:53;;;;;;;1.73;0.40;;;;;;;11.33;100.00;99121.81;5040219;28;20033;-59
2022/10/24 03:46:19;;;;;;;1.63;0.40;;;;;;;11.34;100.00;99123.41;5033212;28;20483;-59
2022/10/24 03:48:44;;;;;;;0.30;0.30;;;;;;;11.31;100.00;99129.19;5036468;28;20064;-59
2022/10/24 03:51:09;;;;;;;1.52;0.65;;;;;;;11.28;100.00;99126.97;5032322;28;20029;-56
2022/10/24 03:53:35;;;;;;;0.43;0.15;;;;;;;11.22;100.00;99119.91;5030956;28;20107;-58
2022/10/24 03:56:00;;;;;;;2.00;1.08;;;;;;;11.18;100.00;99134.69;5028936;28;20444;-52
2022/10/24 03:58:26;;;;;;;3.65;1.35;;;;;;;11.19;100.00;99135.50;5033986;28;20088;-59
2022/10/24 04:00:51;;;;;;;2.83;0.88;;;;;;;11.18;100.00;99139.16;5035888;28;20033;-57
2022/10/24 04:03:17;;;;;;;1.25;0.60;;;;;;;11.20;100.00;99148.50;5036532;28;20025;-59
2022/10/24 04:05:42;;;;;;;1.65;0.25;;;;;;;11.19;100.00;99149.56;5039479;28;20030;-59
2022/10/24 04:08:08;;;;;;;3.03;0.28;;;;;;;11.21;100.00;99150.16;5042154;28;20485;-59
2022/10/24 04:10:33;;;;;;;1.42;0.40;;;;;;;11.22;100.00;99161.56;5035604;28;20037;-59
2022/10/24 04:12:58;;;;;;;4.63;1.02;;;;;;;11.23;100.00;99165.81;5033868;28;20025;-58
2022/10/24 04:15:24;;;;;;;3.03;0.70;;;;;;;11.23;100.00;99169.31;5041600;28;20030;-56
2022/10/24 04:17:49;;;;;;;2.15;0.90;;;;;;;11.25;100.00;99171.72;5036405;28;20040;-59
2022/10/24 04:20:18;;;;;;;0.30;0.30;;;;;;;11.27;100.00;99170.47;5041093;28;20032;-61
2022/10/24 04:22:44;;;;;;;1.85;0.30;;;;;;;11.27;100.00;99186.38;5033455;28;20462;-59
2022/10/24 04:25:10;;;;;;;0.40;0.30;;;;;;;11.26;100.00;99187.44;5033236;28;20104;-60
2022/10/24 04:27:39;;;;;;;1.55;0.43;;;;;;;11.25;100.00;99191.09;5033081;28;20053;-61
2022/10/24 04:30:09;;;;;;;5.18;0.60;;;;;;;11.25;100.00;99187.63;5031333;28;20029;-60
2022/10/24 04:32:34;;;;;;;2.38;0.30;;;;;;;11.27;100.00;99196.19;5033815;28;20068;-60
2022/10/24 04:35:01;;;;;;;4.50;0.32;;;;;;;11.30;100.00;99193.88;5033292;28;20069;-59
2022/10/24 04:37:26;;;;;;;2.50;0.57;;;;;;;11.27;100.00;99191.69;5041493;28;20026;-59
2022/10/24 04:39:53;;;;;;;2.80;0.40;;;;;;;11.22;100.00;99196.06;5029628;28;20427;-60
2022/10/24 04:42:19;;;;;;;0.98;0.20;;;;;;;11.19;100.00;99199.16;5028621;28;20025;-57
2022/10/24 04:44:44;;;;;;;1.70;0.30;;;;;;;11.19;100.00;99207.94;5029275;28;20562;-57
2022/10/24 04:47:10;;;;;;;1.95;0.22;;;;;;;11.20;100.00;99211.38;5033110;28;20060;-60
2022/10/24 04:49:35;;;;;;;2.50;1.27;;;;;;;11.20;100.00;99228.09;5037443;28;20040;-60
2022/10/24 04:52:00;;;;;;;2.28;0.25;;;;;;;11.21;100.00;99221.78;5032065;28;20040;-59
2022/10/24 04:54:26;;;;;;;1.33;0.30;;;;;;;11.21;100.00;99221.78;5038180;28;20029;-59
2022/10/24 04:56:51;;;;;;;1.20;0.25;;;;;;;11.18;100.00;99232.03;5038214;28;20037;-59
2022/10/24 04:59:16;;;;;;;1.33;0.10;;;;;;;11.13;100.00;99236.19;5037815;28;20060;-59
2022/10/24 05:01:42;;;;;;;1.35;0.08;;;;;;;11.16;100.00;99253.50;5039791;28;20037;-59
2022/10/24 05:04:08;;;;;;;5.60;0.08;;;;;;;11.14;100.00;99239.63;5042748;28;20052;-59
2022/10/24 05:06:33;;;;;;;1.58;0.30;;;;;;;11.18;100.00;99253.25;5041927;28;20045;-61
2022/10/24 05:08:58;;;;;;;1.85;0.10;;;;;;;11.16;100.00;99250.84;5040638;28;20142;-59
2022/10/24 05:11:24;;;;;;;3.75;0.20;;;;;;;11.18;100.00;99255.91;5040237;28;20066;-61
2022/10/24 05:13:49;;;;;;;3.63;0.22;;;;;;;11.16;100.00;99263.28;5044500;28;20040;-59
2022/10/24 05:16:14;;;;;;;0.10;0.00;;;;;;;11.13;100.00;99268.00;5043689;28;20033;-58
2022/10/24 05:18:40;;;;;;;0.15;0.10;;;;;;;11.12;100.00;99276.19;5034413;28;20066;-59
2022/10/24 05:21:05;;;;;;;0.32;0.05;;;;;;;11.11;100.00;99272.72;5029544;28;20147;-59
2022/10/24 05:23:31;;;;;;;4.28;0.20;;;;;;;11.08;100.00;99288.28;5035861;28;20060;-59
2022/10/24 05:25:56;;;;;;;2.17;0.08;;;;;;;11.05;100.00;99280.78;5036019;28;20111;-59
2022/10/24 05:28:22;;;;;;;1.00;0.32;;;;;;;11.04;100.00;99284.44;5041834;28;20716;-59
2022/10/24 05:30:48;;;;;;;3.85;0.52;;;;;;;11.00;100.00;99292.06;5028659;28;20590;-60
2022/10/24 05:33:13;;;;;;;0.20;0.00;;;;;;;11.01;100.00;99292.84;5032187;28;20129;-58
2022/10/24 05:35:40;;;;;;;1.60;0.00;;;;;;;10.99;100.00;99303.69;5032316;28;20026;-56
2022/10/24 05:38:06;;;;;;;0.00;0.00;;;;;;;10.99;100.00;99308.19;5033240;28;20534;-58
2022/10/24 05:40:31;;;;;;;4.65;0.40;;;;;;;10.98;100.00;99317.19;5029085;28;20040;-58
2022/10/24 05:42:56;;;;;;;0.45;0.08;;;;;;;10.98;100.00;99317.97;5027613;28;20029;-60
2022/10/24 05:45:22;;;;;;;1.85;0.15;;;;;;;10.97;100.00;99324.31;5035544;28;20041;-59
2022/10/24 05:47:47;;;;;;;0.38;0.10;;;;;;;10.97;100.00;99329.63;5038862;28;20497;-59
2022/10/24 05:50:14;;;;;;;0.60;0.00;;;;;;;10.98;100.00;99336.53;5042257;28;20037;-60
2022/10/24 05:52:41;;;;;;;0.00;0.00;;;;;;;10.95;100.00;99347.59;5032745;28;20299;-60
2022/10/24 05:55:08;;;;;;;0.77;0.20;;;;;;;10.96;100.00;99343.91;5034464;28;20099;-60
2022/10/24 05:57:35;;;;;;;2.70;0.10;;;;;;;10.96;100.00;99338.59;5031238;28;20033;-59
2022/10/24 06:00:01;;;;;;;1.30;0.40;;;;;;;10.97;100.00;99342.91;5030922;28;20041;-59
2022/10/24 06:02:26;;;;;;;10.77;0.88;;;;;;;10.97;100.00;99350.84;5032192;28;20025;-59
2022/10/24 06:04:53;;;;;;;0.00;0.00;;;;;;;10.94;100.00;99353.13;5036503;28;20386;-60
2022/10/24 06:07:19;;;;;;;0.00;0.00;;;;;;;10.91;100.00;99364.97;5035690;28;20036;-59
2022/10/24 06:09:44;;;;;;;0.17;0.17;;;;;;;10.89;100.00;99359.06;5031903;28;20029;-58
2022/10/24 06:12:10;;;;;;;2.92;0.00;;;;;;;10.89;100.00;99370.50;5032099;28;20029;-60
2022/10/24 06:14:37;;;;;;;0.17;0.00;;;;;;;10.92;100.00;99363.97;5041558;28;20035;-60
2022/10/24 06:17:04;;;;;;;0.10;0.00;;;;;;;10.92;100.00;99369.25;5045778;28;20055;-59
2022/10/24 06:19:30;;;;;;;1.55;0.22;;;;;;;10.93;100.00;99373.53;5035481;28;20033;-60
2022/10/24 06:21:55;;;;;;;0.00;0.00;;;;;;;10.92;100.00;99369.25;5046431;28;20029;-59
2022/10/24 06:24:20;;;;;;;0.00;0.00;;;;;;;10.88;100.00;99373.38;5034160;28;20037;-59
2022/10/24 06:26:46;;;;;;;0.20;0.20;;;;;;;10.88;100.00;99373.38;5042869;28;20403;-58
2022/10/24 06:29:11;;;;;;;0.28;0.00;;;;;;;10.88;100.00;99384.78;5037541;28;20084;-59
2022/10/24 06:31:37;;;;;;;1.45;0.10;;;;;;;10.87;100.00;99375.22;5040252;28;20052;-57
2022/10/24 06:34:02;;;;;;;5.93;0.45;;;;;;;10.87;100.00;99392.97;5034487;28;20040;-60
2022/10/24 06:36:28;;;;;;;0.00;0.00;;;;;;;10.89;100.00;99388.25;5041130;28;20032;-60
2022/10/24 06:38:54;;;;;;;0.75;0.10;;;;;;;10.94;100.00;99396.34;5044907;28;20478;-59
2022/10/24 06:41:19;;;;;;;0.88;0.10;;;;;;;10.91;100.00;99397.59;5033767;28;20059;-61
2022/10/24 06:43:45;;;;;;;1.13;0.00;;;;;;;10.92;100.00;99406.41;5030352;28;20039;-59
2022/10/24 06:46:13;;;;;;;3.50;0.20;;;;;;;10.95;100.00;99405.94;5032645;28;20025;-59
2022/10/24 06:48:39;;;;;;;1.10;0.00;;;;;;;10.93;100.00;99412.50;5032106;28;20387;-61
2022/10/24 06:51:04;;;;;;;8.77;0.52;;;;;;;10.97;100.00;99421.63;5030194;28;20025;-59
2022/10/24 06:53:31;;;;;;;0.40;0.00;;;;;;;11.00;100.00;99424.66;5032808;28;20029;-59
2022/10/24 06:56:01;;;;;;;2.13;0.10;;;;;;;11.01;100.00;99423.63;5028781;28;20041;-59
2022/10/24 06:58:33;;;;;;;1.63;0.08;;;;;;;11.06;100.00;99431.75;5033083;28;20070;-56
2022/10/24 07:00:58;;;;;;;1.75;0.00;;;;;;;11.08;100.00;99439.50;5035760;28;20116;-58
2022/10/24 07:03:24;;;;;;;3.03;0.22;;;;;;;11.09;100.00;99443.75;5035594;28;20498;-58
2022/10/24 07:05:49;;;;;;;0.65;0.10;;;;;;;11.10;100.00;99448.84;5038030;28;20076;-60
2022/10/24 07:08:14;;;;;;;1.27;0.03;;;;;;;11.12;100.00;99449.41;5034830;28;20533;-57
2022/10/24 07:10:40;;;;;;;0.00;0.00;;;;;;;11.13;100.00;99450.25;5029801;28;20029;-58
2022/10/24 07:13:05;;;;;;;0.15;0.00;;;;;;;11.18;100.00;99458.38;5037433;28;20040;-59
2022/10/24 07:15:30;;;;;;;0.80;0.00;;;;;;;11.22;100.00;99459.53;5035608;28;20029;-59
2022/10/24 07:17:56;;;;;;;0.45;0.00;;;;;;;11.24;100.00;99459.31;5030623;28;20085;-60
2022/10/24 07:20:21;;;;;;;1.80;0.00;;;;;;;11.25;100.00;99459.09;5033176;28;20025;-60
2022/10/24 07:22:46;;;;;;;0.30;0.10;;;;;;;11.27;100.00;99470.28;5035317;28;20033;-59
2022/10/24 07:25:12;;;;;;;1.02;0.00;;;;;;;11.29;100.00;99464.78;5031253;28;21576;-61
2022/10/24 07:27:38;;;;;;;0.30;0.00;;;;;;;11.33;100.00;99476.56;5034389;28;20053;-60
2022/10/24 07:30:05;;;;;;;2.75;0.00;;;;;;;11.42;100.00;99480.56;5035848;28;20025;-59
2022/10/24 07:32:31;;;;;;;0.00;0.00;;;;;;;11.51;100.00;99481.91;5036969;28;20068;-59
2022/10/24 07:34:56;;;;;;;0.80;0.00;;;;;;;11.61;100.00;99493.84;5032261;28;20064;-60
2022/10/24 07:37:22;;;;;;;0.47;0.47;;;;;;;11.64;100.00;99501.34;5031253;28;21222;-59
2022/10/24 07:39:47;;;;;;;0.35;0.35;;;;;;;11.62;100.00;99501.59;5037863;28;20485;-59
2022/10/24 07:42:13;;;;;;;0.08;0.03;;;;;;;11.65;100.00;99498.47;5039709;28;20061;-60
2022/10/24 07:44:39;;;;;;;0.85;0.15;;;;;;;11.61;100.00;99507.91;5032526;28;20033;-59
2022/10/24 07:47:06;;;;;;;0.73;0.10;;;;;;;11.64;100.00;99514.63;5046863;28;20059;-59
2022/10/24 07:49:32;;;;;;;0.70;0.13;;;;;;;11.65;100.00;99518.91;5034668;28;20033;-60
2022/10/24 07:51:58;;;;;;;4.10;0.60;;;;;;;11.66;100.00;99516.03;5036547;28;20030;-58
2022/10/24 07:54:25;;;;;;;1.38;0.00;;;;;;;11.74;100.00;99520.22;5038686;28;20033;-59
2022/10/24 07:56:50;;;;;;;2.92;0.00;;;;;;;11.78;100.00;99530.19;5030593;28;20041;-60
2022/10/24 07:59:15;;;;;;;0.30;0.00;;;;;;;11.74;100.00;99529.00;5036510;28;20025;-59
2022/10/24 08:01:41;;;;;;;1.23;0.00;;;;;;;11.72;100.00;99532.91;5041855;28;20104;-59
2022/10/24 08:04:06;;;;;;;0.85;0.10;;;;;;;11.64;100.00;99530.56;5037272;28;20375;-60
2022/10/24 08:06:32;;;;;;;0.20;0.00;;;;;;;11.62;100.00;99537.94;5031934;28;20033;-57
2022/10/24 08:08:57;;;;;;;3.08;0.00;;;;;;;11.63;100.00;99534.25;5036442;28;20101;-59
2022/10/24 08:11:25;;;;;;;0.77;0.00;;;;;;;11.65;100.00;99546.28;5045117;28;20036;-59
2022/10/24 08:13:52;;;;;;;2.03;0.10;;;;;;;11.67;100.00;99540.72;5034908;28;20052;-60
2022/10/24 08:16:20;;;;;;;1.35;0.00;;;;;;;11.70;100.00;99548.28;5035224;28;20037;-59
2022/10/24 08:18:46;;;;;;;0.03;0.00;;;;;;;11.75;100.00;99553.75;5037690;28;20033;-59
2022/10/24 08:21:13;;;;;;;2.90;0.20;;;;;;;11.75;100.00;99553.75;5039741;28;20033;-60
2022/10/24 08:23:42;;;;;;;0.50;0.00;;;;;;;11.82;100.00;99553.66;5037023;28;20664;-60
2022/10/24 08:26:11;;;;;;;0.00;0.00;;;;;;;11.89;100.00;99552.56;5038705;28;20454;-59
2022/10/24 08:28:36;;;;;;;1.10;0.63;;;;;;;11.99;100.00;99558.19;5039298;28;20403;-60
2022/10/24 08:31:07;;;;;;;3.72;0.00;;;;;;;12.12;100.00;99553.75;5039611;28;20040;-60
2022/10/24 08:33:33;;;;;;;0.60;0.00;;;;;;;12.17;100.00;99556.53;5036816;28;20496;-61
2022/10/24 08:36:03;;;;;;;3.40;0.05;;;;;;;12.23;100.00;99566.25;5036464;28;20030;-61
2022/10/24 08:38:29;;;;;;;0.90;0.00;;;;;;;12.27;100.00;99566.66;5040958;28;20528;-61
2022/10/24 08:40:55;;;;;;;1.25;0.65;;;;;;;12.39;100.00;99568.31;5039085;28;20216;-60
2022/10/24 08:43:21;;;;;;;1.15;0.63;;;;;;;12.41;100.00;99579.53;5041363;28;20032;-59
2022/10/24 08:46:13;;;;;;;0.40;0.10;;;;;;;12.51;100.00;99586.97;5035388;28;20118;-60
2022/10/24 08:48:44;;;;;;;;;;;;;;;12.75;100.00;99579.06;5043424;28;20060;-57
2022/10/24 08:51:39;;;;;;;0.00;0.00;;;;;;;12.82;100.00;99582.44;5047677;28;19920;-59
2022/10/24 08:54:10;;;;;;;0.82;0.00;;;;;;;12.80;100.00;99579.19;5041717;28;20030;-59
2022/10/24 08:56:35;;;;;;;1.27;0.00;;;;;;;12.82;100.00;99585.91;5036999;28;20033;-58
2022/10/24 08:59:02;;;;;;;0.30;0.00;;;;;;;12.90;100.00;99590.09;5040844;28;20037;-59
2022/10/24 09:01:34;;;;;;;1.35;0.00;;;;;;;12.95;100.00;99597.41;5038011;28;20044;-59
2022/10/24 09:04:06;;;;;;;0.15;0.15;;;;;;;12.93;100.00;99594.16;5043205;28;20176;-60
2022/10/24 09:06:31;;;;;;;2.13;0.00;;;;;;;13.06;100.00;99604.59;5050181;28;20044;-60
2022/10/24 09:09:04;;;;;;;1.55;0.10;;;;;;;12.97;100.00;99603.31;5037387;28;20025;-56
2022/10/24 09:11:39;;;;;;;1.50;0.10;;;;;;;12.86;100.00;99591.59;5043817;28;20051;-57
2022/10/24 09:14:20;;;;;;;2.67;0.00;;;;;;;12.93;100.00;99591.47;5045207;28;20049;-58
2022/10/24 09:16:51;;;;;;;0.75;0.08;;;;;;;12.94;100.00;99593.13;5047236;28;20174;-57
2022/10/24 09:19:23;;;;;;;2.55;0.22;;;;;;;13.01;100.00;99593.81;5028800;28;20032;-56
2022/10/24 09:21:52;;;;;;;1.05;0.08;;;;;;;13.05;100.00;99605.63;5042260;28;20395;-58
2022/10/24 09:24:28;;;;;;;0.00;0.00;;;;;;;12.99;100.00;99610.03;5038384;28;20029;-58
2022/10/24 09:26:53;;;;;;;0.15;0.10;;;;;;;12.97;100.00;99604.13;5040663;28;20095;-59
2022/10/24 09:29:19;;;;;;;4.85;0.20;;;;;;;13.04;100.00;99610.16;5044096;28;20073;-60
2022/10/24 09:31:48;;;;;;;2.97;0.15;;;;;;;13.18;100.00;99623.25;5040856;28;20033;-59
2022/10/24 09:34:15;;;;;;;9.13;0.10;;;;;;;13.29;100.00;99623.31;5040485;28;20029;-56
2022/10/24 09:36:40;;;;;;;3.08;0.88;;;;;;;13.27;100.00;99616.59;5037217;28;20041;-60
2022/10/24 09:39:35;;;;;;;6.97;0.47;;;;;;;13.37;100.00;99608.03;5039715;28;20104;-60
2022/10/24 09:42:01;;;;;;;3.50;0.43;;;;;;;13.47;100.00;99627.69;5037175;28;20060;-59
2022/10/24 09:44:30;;;;;;;0.75;0.00;;;;;;;13.55;100.00;99615.91;5048147;28;20041;-59
2022/10/24 09:46:56;;;;;;;2.00;0.85;;;;;;;13.65;100.00;99616.13;5038979;28;20148;-56
2022/10/24 09:49:30;;;;;;;2.50;0.15;;;;;;;13.75;100.00;99629.69;5031558;28;20057;-58
2022/10/24 09:52:22;;;;;;;0.93;0.15;;;;;;;13.72;100.00;99630.16;5035488;28;20030;-59
2022/10/24 09:55:18;;;;;;;0.10;0.10;;;;;;;13.84;100.00;99642.69;5039985;28;20075;-59
2022/10/24 09:57:43;;;;;;;2.63;0.00;;;;;;;13.75;100.00;99620.88;5042885;28;20044;-60
2022/10/24 10:00:31;;;;;;;0.63;0.20;;;;;;;13.86;100.00;99632.56;5036230;28;20037;-59
2022/10/24 10:02:58;;;;;;;1.00;0.25;;;;;;;13.95;100.00;99632.00;5046719;28;20033;-60
2022/10/24 10:05:24;;;;;;;1.77;0.10;;;;;;;14.06;100.00;99641.00;5037764;28;20068;-58
2022/10/24 10:07:50;;;;;;;0.20;0.00;;;;;;;14.16;100.00;99638.56;5038988;28;20076;-60
2022/10/24 10:10:28;;;;;;;2.47;0.50;;;;;;;14.25;100.00;99640.84;5035620;28;20051;-60
2022/10/24 10:12:56;;;;;;;2.63;0.95;;;;;;;14.30;100.00;99638.28;5044226;28;20052;-57
2022/10/24 10:15:49;;;;;;;1.42;0.17;;;;;;;14.30;100.00;99638.28;5040139;28;20102;-59
2022/10/24 10:18:33;;;;;;;1.27;0.00;;;;;;;14.27;100.00;99634.25;5033069;28;20040;-51
2022/10/24 10:21:05;;;;;;;0.52;0.00;;;;;;;14.30;100.00;99636.47;5037153;28;20033;-53
2022/10/24 10:23:36;;;;;;;4.05;0.68;;;;;;;14.37;100.00;99641.63;5043527;28;20143;-57
2022/10/24 10:26:15;;;;;;;0.10;0.03;;;;;;;14.40;100.00;99642.00;5045011;28;20044;-55
2022/10/24 10:28:51;;;;;;;1.65;0.00;;;;;;;14.53;100.00;99646.28;5043521;28;20328;-60
2022/10/24 10:31:21;;;;;;;1.05;0.10;;;;;;;14.69;100.00;99643.88;5033293;28;20029;-59
2022/10/24 10:33:49;;;;;;;2.78;0.75;;;;;;;14.66;100.00;99642.50;5043967;28;20038;-60
2022/10/24 10:36:30;;;;;;;2.88;0.20;;;;;;;14.59;100.00;99639.97;5044235;28;20116;-58
2022/10/24 10:39:31;;;;;;;0.82;0.13;;;;;;;14.58;100.00;99633.00;5045736;28;20040;-53
2022/10/24 10:42:13;;;;;;;2.15;0.15;;;;;;;14.47;100.00;99638.38;5035737;28;20029;-51
2022/10/24 10:44:57;;;;;;;0.65;0.65;;;;;;;14.54;100.00;99633.75;5039210;28;20465;-56
2022/10/24 10:47:47;;;;;;;2.40;0.03;;;;;;;14.73;100.00;99631.69;5040316;28;20021;-55
2022/10/24 10:50:57;;;;;;;3.30;0.10;;;;;;;14.85;100.00;99634.31;5045104;28;20470;-54
2022/10/24 10:53:32;;;;;;;3.50;0.20;;;;;;;14.87;100.00;99642.88;5023873;28;20038;-60
2022/10/24 10:56:20;;;;;;;2.92;0.20;;;;;;;14.88;100.00;99642.66;5034793;28;20075;-58
2022/10/24 10:59:01;;;;;;;1.88;0.32;;;;;;;14.95;100.00;99645.19;5032975;28;20033;-56
2022/10/24 11:01:50;;;;;;;0.80;0.00;;;;;;;14.94;100.00;99651.56;5035216;28;20041;-56
2022/10/24 11:04:50;;;;;;;1.85;0.20;;;;;;;14.77;100.00;99654.19;5038844;28;20116;-59
2022/10/24 11:07:30;;;;;;;4.85;0.17;;;;;;;15.03;100.00;99656.28;5043772;28;20119;-58
2022/10/24 11:10:01;;;;;;;2.03;0.30;;;;;;;15.23;100.00;99657.66;5039252;28;20029;-60
2022/10/24 11:12:40;;;;;;;1.63;1.10;;;;;;;15.27;100.00;99653.47;5037264;28;20033;-53
2022/10/24 11:15:34;;;;;;;4.90;0.10;;;;;;;15.37;100.00;99660.84;5036170;28;20044;-56
2022/10/24 11:18:20;;;;;;;4.15;0.60;;;;;;;15.29;100.00;99656.69;5030045;28;20120;-57
2022/10/24 11:20:56;;;;;;;6.03;0.10;;;;;;;15.29;100.00;99667.38;5038634;28;20026;-59
2022/10/24 11:23:33;;;;;;;22.58;2.85;;;;;;;15.35;100.00;99658.41;5039641;28;20124;-57
2022/10/24 11:26:05;;;;;;;2.63;1.17;;;;;;;15.37;100.00;99658.16;5035059;28;20158;-59
2022/10/24 11:28:45;;;;;;;1.55;0.20;;;;;;;15.44;100.00;99659.63;5040954;28;20144;-54
2022/10/24 11:31:24;;;;;;;2.33;0.17;;;;;;;15.48;100.00;99663.41;5035765;28;20537;-57
2022/10/24 11:34:03;;;;;;;3.38;0.10;;;;;;;15.39;100.00;99667.56;5032964;28;20025;-57
2022/10/24 11:36:42;;;;;;;8.10;1.13;;;;;;;15.32;100.00;99658.88;5047334;28;20076;-58
2022/10/24 11:39:24;;;;;;;0.55;0.10;;;;;;;15.53;100.00;99662.69;5038003;28;20029;-58